Time;durP1;ratioP1;P1;durP2;ratioP2;P2;SDS_P1;SDS_P2;PMS_P1;PMS_P2;Temp;Humidity;BMP_temperature;BMP_pressure;BME280_temperature;BME280_humidity;BME280_pressure;Samples;Min_cycle;Max_cycle;Signal;HPM_P1;HPM_P2
2023/03/21 00:00:57;;;;;;;4.73;2.90;;;;;;;17.92;56.01;100587.16;5070015;28;20625;-64
2023/03/21 00:03:22;;;;;;;5.70;3.23;;;;;;;17.97;55.92;100580.34;5074087;28;20451;-63
2023/03/21 00:05:52;;;;;;;4.90;3.00;;;;;;;17.94;55.77;100587.63;5087342;28;20951;-63
2023/03/21 00:08:19;;;;;;;4.73;3.20;;;;;;;17.93;55.88;100574.53;5085609;28;20665;-63
2023/03/21 00:10:44;;;;;;;5.70;3.07;;;;;;;17.92;56.15;100574.91;5071207;28;20424;-63
2023/03/21 00:13:11;;;;;;;4.27;3.13;;;;;;;17.91;56.01;100579.78;5074275;28;20484;-63
2023/03/21 00:15:48;;;;;;;4.50;3.00;;;;;;;17.93;55.95;100579.41;5051690;28;20171;-63
2023/03/21 00:18:17;;;;;;;4.93;3.37;;;;;;;17.95;55.94;100580.69;5069261;28;20470;-63
2023/03/21 00:20:45;;;;;;;5.43;3.63;;;;;;;17.92;56.06;100578.59;5069553;28;20425;-63
2023/03/21 00:23:10;;;;;;;3.63;2.50;;;;;;;17.95;56.01;100585.56;5055981;28;20500;-63
2023/03/21 00:25:36;;;;;;;4.40;2.80;;;;;;;17.95;56.37;100574.97;5071862;28;20417;-63
2023/03/21 00:28:01;;;;;;;4.93;2.73;;;;;;;17.95;56.27;100577.84;5051344;28;20207;-63
2023/03/21 00:30:27;;;;;;;5.93;3.60;;;;;;;17.94;55.93;100576.19;5071974;28;20197;-63
2023/03/21 00:32:53;;;;;;;5.80;3.53;;;;;;;17.92;55.89;100575.75;5069369;28;20543;-63
2023/03/21 00:35:18;;;;;;;4.20;3.07;;;;;;;17.92;55.94;100572.88;5068676;28;20523;-63
2023/03/21 00:37:44;;;;;;;5.73;3.40;;;;;;;17.91;56.04;100565.50;5071701;28;20533;-63
2023/03/21 00:40:10;;;;;;;4.63;3.00;;;;;;;17.90;56.32;100566.69;5069674;28;20186;-63
2023/03/21 00:42:35;;;;;;;4.20;3.00;;;;;;;17.90;56.46;100558.13;5077697;28;20343;-63
2023/03/21 00:45:02;;;;;;;6.03;3.43;;;;;;;17.93;56.38;100560.25;5071611;28;20477;-63
2023/03/21 00:47:27;;;;;;;3.97;2.57;;;;;;;17.91;56.22;100554.06;5087043;28;20592;-63
2023/03/21 00:49:53;;;;;;;5.27;3.40;;;;;;;17.91;56.37;100551.22;5087318;28;20433;-63
2023/03/21 00:52:18;;;;;;;5.67;3.07;;;;;;;17.91;56.08;100544.69;5083894;28;20183;-63
2023/03/21 00:54:44;;;;;;;6.10;3.53;;;;;;;17.90;56.27;100541.00;5070743;28;20891;-63
2023/03/21 00:57:09;;;;;;;3.87;2.60;;;;;;;17.90;56.09;100543.84;5068443;28;20864;-63
2023/03/21 00:59:35;;;;;;;5.00;3.40;;;;;;;17.91;56.05;100545.50;5050734;28;20186;-63
2023/03/21 01:02:00;;;;;;;5.90;3.37;;;;;;;17.89;56.00;100547.91;5088173;28;20231;-63
2023/03/21 01:04:27;;;;;;;4.40;3.00;;;;;;;17.90;56.27;100543.84;5088353;28;20237;-63
2023/03/21 01:06:53;;;;;;;6.00;2.90;;;;;;;17.88;56.14;100543.41;5084353;28;20716;-63
2023/03/21 01:09:20;;;;;;;4.37;3.00;;;;;;;17.88;56.10;100537.69;5085979;28;20464;-63
2023/03/21 01:11:46;;;;;;;6.03;2.87;;;;;;;17.88;55.68;100540.53;5068357;28;21105;-63
2023/03/21 01:14:12;;;;;;;4.20;2.53;;;;;;;17.90;56.21;100543.84;5051017;28;20425;-63
2023/03/21 01:16:38;;;;;;;4.90;2.70;;;;;;;17.88;55.98;100536.84;5071094;28;20564;-63
2023/03/21 01:19:04;;;;;;;4.70;2.80;;;;;;;17.89;56.51;100544.22;5071205;28;20452;-63
2023/03/21 01:21:30;;;;;;;5.43;2.90;;;;;;;17.88;56.37;100543.41;5070727;28;20517;-63
2023/03/21 01:23:56;;;;;;;4.97;2.80;;;;;;;17.88;56.45;100537.69;5074360;28;20841;-63
2023/03/21 01:26:21;;;;;;;6.60;3.17;;;;;;;17.87;56.20;100540.91;5073375;28;20498;-63
2023/03/21 01:28:46;;;;;;;4.83;3.33;;;;;;;17.85;56.44;100543.31;5054083;28;20198;-63
2023/03/21 01:31:13;;;;;;;4.00;2.87;;;;;;;17.86;56.57;100542.94;5072422;28;20187;-63
2023/03/21 01:33:39;;;;;;;4.30;2.73;;;;;;;17.85;55.95;100538.41;5057837;28;20707;-63
2023/03/21 01:36:05;;;;;;;5.93;3.00;;;;;;;17.86;56.21;100530.69;5093020;28;20408;-63
2023/03/21 01:38:30;;;;;;;4.87;3.03;;;;;;;17.86;56.61;100539.25;5080572;28;20625;-63
2023/03/21 01:40:58;;;;;;;4.43;2.90;;;;;;;17.86;56.46;100534.34;5091711;28;20420;-63
2023/03/21 01:43:29;;;;;;;5.10;2.87;;;;;;;17.86;56.21;100536.41;5074971;28;20619;-63
2023/03/21 01:46:09;;;;;;;4.13;2.53;;;;;;;17.85;56.30;100529.84;5088395;28;20605;-63
2023/03/21 01:48:35;;;;;;;4.83;2.63;;;;;;;17.85;56.59;100529.84;5092780;28;20471;-63
2023/03/21 01:51:02;;;;;;;3.90;2.63;;;;;;;17.83;56.27;100526.56;5092594;28;20423;-63
2023/03/21 01:53:28;;;;;;;6.20;2.60;;;;;;;17.84;56.11;100521.66;5066425;28;20420;-63
2023/03/21 01:55:58;;;;;;;3.70;2.70;;;;;;;17.83;56.25;100515.13;5040594;28;20909;-63
2023/03/21 01:58:24;;;;;;;5.27;2.90;;;;;;;17.82;56.08;100519.19;5037570;28;20433;-63
2023/03/21 02:00:49;;;;;;;4.60;3.17;;;;;;;17.83;56.16;100512.28;5064121;28;20444;-63
2023/03/21 02:03:15;;;;;;;4.80;2.53;;;;;;;17.84;55.94;100513.06;5092287;28;20657;-64
2023/03/21 02:05:59;;;;;;;5.00;2.60;;;;;;;17.84;56.14;100513.91;5071128;28;20706;-63
2023/03/21 02:08:25;;;;;;;4.57;2.80;;;;;;;17.87;56.33;100516.06;5071947;28;20201;-63
2023/03/21 02:10:50;;;;;;;5.40;2.80;;;;;;;17.84;56.24;100513.06;5071806;28;20798;-63
2023/03/21 02:13:16;;;;;;;3.87;2.70;;;;;;;17.84;55.83;100504.50;5073609;28;20608;-63
2023/03/21 02:15:46;;;;;;;3.97;2.63;;;;;;;17.84;56.14;100501.66;5071506;28;20163;-63
2023/03/21 02:18:21;;;;;;;3.60;2.30;;;;;;;17.82;55.99;100501.22;5055515;28;20189;-63
2023/03/21 02:21:17;;;;;;;7.87;2.77;;;;;;;17.84;56.33;100505.34;5053799;28;20785;-63
2023/03/21 02:23:54;;;;;;;4.30;2.80;;;;;;;17.83;56.48;100492.28;5073717;28;20534;-63
2023/03/21 02:26:42;;;;;;;4.80;2.80;;;;;;;17.82;56.12;100499.19;5071496;28;20452;-63
2023/03/21 02:29:13;;;;;;;4.77;2.80;;;;;;;17.84;56.65;100493.09;5071320;28;20465;-63
2023/03/21 02:31:41;;;;;;;5.50;2.63;;;;;;;17.83;56.37;100502.88;5071610;28;20445;-63
2023/03/21 02:34:22;;;;;;;5.13;2.73;;;;;;;17.81;56.48;100500.38;5034869;28;20437;-63
2023/03/21 02:37:04;;;;;;;4.47;2.70;;;;;;;17.80;56.54;100495.88;5051260;28;20445;-63
2023/03/21 02:39:37;;;;;;;3.50;2.60;;;;;;;17.82;56.25;100496.34;5046250;28;20419;-63
2023/03/21 02:42:27;;;;;;;4.43;2.50;;;;;;;17.81;56.17;100491.00;5071547;28;20444;-63
2023/03/21 02:45:02;;;;;;;3.47;2.03;;;;;;;17.80;56.19;100487.31;5037188;28;20421;-63
2023/03/21 02:47:38;;;;;;;5.10;2.83;;;;;;;17.82;56.00;100484.06;5036396;28;20456;-63
2023/03/21 02:50:11;;;;;;;3.63;2.57;;;;;;;17.81;56.15;100474.66;5053102;28;20486;-63
2023/03/21 02:52:37;;;;;;;4.10;2.90;;;;;;;17.81;56.00;100482.44;5081722;28;21229;-63
2023/03/21 02:55:06;;;;;;;3.70;2.67;;;;;;;17.79;56.33;100479.09;5072926;28;20408;-63
2023/03/21 02:57:31;;;;;;;4.13;2.47;;;;;;;17.80;56.28;100475.06;5045781;28;20191;-63
2023/03/21 02:59:56;;;;;;;4.20;2.70;;;;;;;17.79;56.15;100471.38;5035780;28;20492;-63
2023/03/21 03:02:25;;;;;;;4.10;2.50;;;;;;;17.79;56.33;100479.09;5072042;28;20186;-63
2023/03/21 03:04:50;;;;;;;4.00;2.73;;;;;;;17.79;56.20;100473.38;5058685;28;20166;-63
2023/03/21 03:07:30;;;;;;;3.07;2.40;;;;;;;17.79;56.10;100468.50;5086043;28;21043;-63
2023/03/21 03:10:01;;;;;;;4.43;2.30;;;;;;;17.77;56.56;100473.78;5089976;28;20771;-63
2023/03/21 03:12:49;;;;;;;4.07;2.70;;;;;;;17.78;56.50;100469.72;5088549;28;20452;-63
2023/03/21 03:15:27;;;;;;;3.80;2.67;;;;;;;17.80;56.55;100469.34;5032812;28;20493;-63
2023/03/21 03:18:12;;;;;;;4.10;2.63;;;;;;;17.78;56.22;100463.16;5050514;28;20429;-63
2023/03/21 03:20:45;;;;;;;3.87;2.53;;;;;;;17.77;56.29;100458.66;5087536;28;20531;-63
2023/03/21 03:23:12;;;;;;;3.70;2.53;;;;;;;17.78;56.08;100464.00;5072603;28;20458;-63
2023/03/21 03:25:42;;;;;;;3.43;2.10;;;;;;;17.77;56.23;100459.50;5086537;28;20440;-63
2023/03/21 03:28:07;;;;;;;3.10;2.20;;;;;;;17.76;56.38;100454.97;5052766;28;20809;-62
2023/03/21 03:30:32;;;;;;;3.80;2.30;;;;;;;17.76;56.23;100457.00;5046000;28;20444;-62
2023/03/21 03:32:58;;;;;;;3.57;2.37;;;;;;;17.76;56.34;100454.97;5055933;28;20178;-61
2023/03/21 03:35:24;;;;;;;5.03;2.47;;;;;;;17.76;56.25;100457.81;5072781;28;20174;-62
2023/03/21 03:37:55;;;;;;;3.90;2.40;;;;;;;17.77;56.21;100452.94;5090053;28;20576;-62
2023/03/21 03:41:02;;;;;;;3.73;2.50;;;;;;;17.77;56.43;100459.50;5039609;28;20201;-62
2023/03/21 03:43:34;;;;;;;5.10;2.60;;;;;;;17.77;56.64;100455.81;4971726;28;20437;-62
2023/03/21 03:46:04;;;;;;;3.33;2.00;;;;;;;17.76;56.17;100454.97;5041175;28;20555;-62
2023/03/21 03:48:37;;;;;;;3.87;2.50;;;;;;;17.76;56.36;100459.88;5070177;28;20462;-62
2023/03/21 03:51:02;;;;;;;4.10;2.70;;;;;;;17.75;56.06;100459.03;5052614;28;20409;-62
2023/03/21 03:53:34;;;;;;;4.60;2.60;;;;;;;17.76;56.18;100452.13;5072198;28;20505;-62
2023/03/21 03:55:59;;;;;;;4.37;2.40;;;;;;;17.77;56.29;100464.38;5052744;28;20276;-62
2023/03/21 03:58:26;;;;;;;3.73;2.47;;;;;;;17.75;56.29;100461.88;5058905;28;20472;-62
2023/03/21 04:00:53;;;;;;;5.70;2.67;;;;;;;17.76;56.39;100469.25;5071533;28;20661;-62
2023/03/21 04:03:18;;;;;;;2.97;2.20;;;;;;;17.77;56.25;100458.66;5089548;28;20407;-62
2023/03/21 04:05:46;;;;;;;3.10;2.40;;;;;;;17.76;56.25;100465.59;5089145;28;20436;-62
2023/03/21 04:08:13;;;;;;;3.30;2.40;;;;;;;17.74;56.23;100460.25;5084616;28;20207;-62
2023/03/21 04:10:39;;;;;;;4.00;2.30;;;;;;;17.76;56.02;100459.88;5089382;28;20479;-62
2023/03/21 04:13:05;;;;;;;4.40;2.60;;;;;;;17.76;56.14;100469.25;5079940;28;20440;-62
2023/03/21 04:15:30;;;;;;;4.27;2.53;;;;;;;17.76;56.23;100459.88;5069419;28;20440;-62
2023/03/21 04:17:56;;;;;;;3.70;2.47;;;;;;;17.75;56.02;100464.75;5069768;28;20166;-62
2023/03/21 04:20:21;;;;;;;3.37;2.10;;;;;;;17.75;55.86;100461.88;5084066;28;20182;-62
2023/03/21 04:22:47;;;;;;;3.57;2.60;;;;;;;17.76;56.04;100457.81;5089952;28;20179;-62
2023/03/21 04:25:13;;;;;;;4.37;2.40;;;;;;;17.76;56.27;100454.16;5089061;28;20179;-62
2023/03/21 04:27:38;;;;;;;3.23;2.17;;;;;;;17.76;56.10;100457.00;5082328;28;20277;-62
2023/03/21 04:30:06;;;;;;;3.00;2.17;;;;;;;17.75;56.14;100455.38;5086390;28;20186;-62
2023/03/21 04:32:32;;;;;;;3.33;2.10;;;;;;;17.75;56.29;100461.88;5088666;28;20327;-62
2023/03/21 04:34:58;;;;;;;3.60;2.10;;;;;;;17.75;56.02;100456.16;5075067;28;20524;-62
2023/03/21 04:37:24;;;;;;;3.57;2.43;;;;;;;17.73;55.96;100458.59;5068592;28;20523;-62
2023/03/21 04:39:50;;;;;;;3.63;2.37;;;;;;;17.74;56.35;100454.53;5071523;28;20448;-62
2023/03/21 04:42:19;;;;;;;3.83;2.23;;;;;;;17.76;55.90;100457.81;5089531;28;20420;-62
2023/03/21 04:44:45;;;;;;;3.00;2.00;;;;;;;17.74;56.15;100453.69;5089737;28;20509;-62
2023/03/21 04:47:12;;;;;;;2.63;1.57;;;;;;;17.74;56.20;100450.81;5070915;28;20488;-62
2023/03/21 04:49:37;;;;;;;4.00;2.37;;;;;;;17.74;56.15;100459.41;5071157;28;20465;-62
2023/03/21 04:52:03;;;;;;;2.80;1.90;;;;;;;17.73;56.44;100452.88;5069336;28;20416;-62
2023/03/21 04:54:29;;;;;;;3.10;2.30;;;;;;;17.74;56.35;100454.53;5052282;28;20662;-62
2023/03/21 04:56:54;;;;;;;3.03;1.90;;;;;;;17.73;55.94;100446.31;5072619;28;20191;-62
2023/03/21 04:59:20;;;;;;;3.37;2.03;;;;;;;17.73;56.33;100438.59;5055340;28;20159;-62
2023/03/21 05:01:46;;;;;;;2.97;1.83;;;;;;;17.71;56.03;100435.28;5073190;28;20195;-62
2023/03/21 05:04:12;;;;;;;4.20;2.37;;;;;;;17.71;56.00;100443.03;5074129;28;20175;-62
2023/03/21 05:06:37;;;;;;;3.10;2.00;;;;;;;17.70;55.99;100439.31;5089016;28;20225;-62
2023/03/21 05:09:07;;;;;;;2.93;2.03;;;;;;;17.72;56.25;100436.94;5093264;28;20965;-62
2023/03/21 05:11:36;;;;;;;3.20;2.30;;;;;;;17.72;56.28;100442.66;5093087;28;20542;-62
2023/03/21 05:14:02;;;;;;;3.07;2.00;;;;;;;17.72;55.90;100442.66;5061508;28;20445;-62
2023/03/21 05:16:29;;;;;;;2.83;2.00;;;;;;;17.71;56.37;100445.88;5072941;28;20421;-62
2023/03/21 05:18:56;;;;;;;3.50;2.10;;;;;;;17.70;56.12;100445.03;5075257;28;20461;-62
2023/03/21 05:21:22;;;;;;;3.03;2.10;;;;;;;17.71;56.16;100448.72;5054863;28;20493;-62
2023/03/21 05:23:53;;;;;;;3.50;2.47;;;;;;;17.70;56.09;100447.91;5072956;28;20447;-63
2023/03/21 05:26:19;;;;;;;2.87;1.93;;;;;;;17.71;55.87;100437.31;5093099;28;21114;-62
2023/03/21 05:28:46;;;;;;;3.47;2.30;;;;;;;17.71;56.14;100446.69;5077146;28;20477;-63
2023/03/21 05:31:15;;;;;;;3.40;2.30;;;;;;;17.70;56.27;100439.31;5071675;28;20429;-63
2023/03/21 05:33:44;;;;;;;3.27;2.33;;;;;;;17.71;56.36;100448.72;5071659;28;20511;-63
2023/03/21 05:36:09;;;;;;;3.33;2.07;;;;;;;17.70;56.08;100442.19;5071011;28;20449;-63
2023/03/21 05:38:35;;;;;;;3.40;2.10;;;;;;;17.71;56.34;100446.69;5037805;28;20438;-63
2023/03/21 05:41:00;;;;;;;3.63;2.47;;;;;;;17.71;55.90;100445.88;5072306;28;20175;-63
2023/03/21 05:43:26;;;;;;;3.63;2.00;;;;;;;17.71;56.01;100449.53;5082467;28;20668;-62
2023/03/21 05:45:51;;;;;;;2.60;1.90;;;;;;;17.73;56.21;100449.19;5092518;28;20226;-62
2023/03/21 05:48:17;;;;;;;2.93;2.10;;;;;;;17.71;56.17;100449.53;5092466;28;20201;-62
2023/03/21 05:50:42;;;;;;;3.00;2.00;;;;;;;17.71;56.18;100452.41;5076935;28;20187;-62
2023/03/21 05:53:08;;;;;;;3.27;2.00;;;;;;;17.71;56.25;100449.53;5070970;28;20191;-63
2023/03/21 05:55:33;;;;;;;4.27;2.60;;;;;;;17.71;55.84;100443.84;5072094;28;20159;-62
2023/03/21 05:57:59;;;;;;;3.30;2.07;;;;;;;17.71;56.31;100448.72;5054213;28;20185;-63
2023/03/21 06:00:25;;;;;;;3.33;2.10;;;;;;;17.71;56.01;100466.69;5072322;28;20206;-63
2023/03/21 06:02:50;;;;;;;3.30;2.33;;;;;;;17.73;56.26;100460.59;5090026;28;20649;-63
2023/03/21 06:05:16;;;;;;;2.77;2.00;;;;;;;17.70;56.07;100465.03;5092280;28;20200;-63
2023/03/21 06:07:41;;;;;;;3.50;2.03;;;;;;;17.70;56.08;100459.31;5091189;28;20186;-63
2023/03/21 06:10:07;;;;;;;3.23;2.27;;;;;;;17.71;56.21;100460.16;5087895;28;20944;-63
2023/03/21 06:12:32;;;;;;;3.33;2.00;;;;;;;17.71;55.98;100460.97;5092234;28;20170;-63
2023/03/21 06:14:58;;;;;;;3.10;2.00;;;;;;;17.70;56.19;100458.50;5083025;28;20182;-63
2023/03/21 06:17:23;;;;;;;3.03;2.00;;;;;;;17.71;56.15;100460.16;5071991;28;20167;-63
2023/03/21 06:19:49;;;;;;;3.80;1.93;;;;;;;17.71;55.80;100460.16;5081472;28;20513;-63
2023/03/21 06:22:15;;;;;;;2.57;1.67;;;;;;;17.71;56.01;100457.31;5091876;28;20181;-63
2023/03/21 06:24:40;;;;;;;3.93;2.27;;;;;;;17.71;56.22;100455.25;5089063;28;20187;-63
2023/03/21 06:27:05;;;;;;;3.50;2.00;;;;;;;17.70;55.81;100455.66;5053105;28;20164;-63
2023/03/21 06:29:31;;;;;;;3.33;2.20;;;;;;;17.71;56.13;100460.97;5071611;28;20533;-63
2023/03/21 06:31:56;;;;;;;3.10;2.10;;;;;;;17.71;56.09;100455.25;5036740;28;20182;-63
2023/03/21 06:34:22;;;;;;;2.80;1.93;;;;;;;17.72;55.69;100444.69;5073555;28;20603;-63
2023/03/21 06:36:47;;;;;;;2.93;1.73;;;;;;;17.70;56.26;100442.19;5071108;28;20503;-63
2023/03/21 06:39:14;;;;;;;2.63;1.80;;;;;;;17.70;55.91;100445.03;5071264;28;20554;-63
2023/03/21 06:41:40;;;;;;;3.30;2.00;;;;;;;17.71;55.89;100446.69;5073415;28;20199;-63
2023/03/21 06:44:05;;;;;;;2.37;1.73;;;;;;;17.72;55.88;100439.81;5070896;28;20417;-63
2023/03/21 06:46:31;;;;;;;3.00;1.63;;;;;;;17.72;56.37;100447.53;5038592;28;20340;-62
2023/03/21 06:48:56;;;;;;;3.20;2.30;;;;;;;17.69;56.18;100443.41;5053277;28;20191;-62
2023/03/21 06:51:22;;;;;;;3.67;2.20;;;;;;;17.69;56.21;100451.97;5071067;28;20650;-62
2023/03/21 06:53:47;;;;;;;3.40;1.97;;;;;;;17.69;56.09;100457.66;5073223;28;20832;-63
2023/03/21 06:56:13;;;;;;;2.57;1.77;;;;;;;17.69;56.20;100454.81;5070647;28;20619;-63
2023/03/21 06:58:39;;;;;;;2.80;1.83;;;;;;;17.70;56.10;100442.19;5053048;28;20190;-62
2023/03/21 07:01:04;;;;;;;3.07;1.60;;;;;;;17.70;56.31;100444.22;5072954;28;20732;-63
2023/03/21 07:03:30;;;;;;;2.70;2.00;;;;;;;17.70;56.20;100447.09;5036254;28;20202;-63
2023/03/21 07:05:56;;;;;;;3.17;1.57;;;;;;;17.70;56.07;100442.19;5041577;28;20264;-63
2023/03/21 07:08:22;;;;;;;3.50;2.17;;;;;;;17.70;56.13;100444.22;5070674;28;20195;-63
2023/03/21 07:10:47;;;;;;;2.93;1.70;;;;;;;17.70;55.95;100430.75;5054490;28;20445;-63
2023/03/21 07:13:13;;;;;;;3.17;2.20;;;;;;;17.70;56.02;100430.75;5052665;28;20164;-63
2023/03/21 07:15:40;;;;;;;3.47;2.00;;;;;;;17.70;55.90;100436.47;5049072;28;20187;-63
2023/03/21 07:18:06;;;;;;;3.70;1.93;;;;;;;17.73;56.11;100424.31;5032465;28;20180;-63
2023/03/21 07:20:31;;;;;;;2.60;1.80;;;;;;;17.71;56.15;100423.03;5021390;28;20506;-63
2023/03/21 07:22:57;;;;;;;2.93;1.97;;;;;;;17.71;55.96;100426.69;5035497;28;20422;-63
2023/03/21 07:25:22;;;;;;;3.63;1.53;;;;;;;17.71;55.96;100423.03;5056947;28;20193;-63
2023/03/21 07:27:48;;;;;;;3.70;2.07;;;;;;;17.71;56.00;100420.19;5069993;28;20189;-63
2023/03/21 07:30:13;;;;;;;2.90;1.90;;;;;;;17.72;56.05;100422.69;5069790;28;20182;-63
2023/03/21 07:32:39;;;;;;;2.80;1.93;;;;;;;17.72;55.90;100421.84;5079202;28;20638;-63
2023/03/21 07:35:09;;;;;;;2.60;1.70;;;;;;;17.72;56.00;100416.13;5070370;28;20572;-63
2023/03/21 07:37:35;;;;;;;3.07;2.07;;;;;;;17.71;55.88;100418.13;5054373;28;20179;-63
2023/03/21 07:40:00;;;;;;;3.20;1.83;;;;;;;17.70;56.04;100416.50;5070262;28;20972;-63
2023/03/21 07:42:26;;;;;;;4.47;2.53;;;;;;;17.71;56.27;100420.19;5052654;28;20273;-62
2023/03/21 07:44:53;;;;;;;2.97;1.80;;;;;;;17.70;56.13;100419.34;5071674;28;20196;-63
2023/03/21 07:47:19;;;;;;;3.70;2.33;;;;;;;17.70;55.89;100427.09;5050632;28;20588;-62
2023/03/21 07:49:45;;;;;;;3.10;2.00;;;;;;;17.70;56.08;100430.75;5049915;28;20450;-62
2023/03/21 07:52:11;;;;;;;3.00;1.93;;;;;;;17.70;56.08;100424.25;5060806;28;20501;-63
2023/03/21 07:54:37;;;;;;;2.93;1.80;;;;;;;17.70;56.12;100432.81;5080587;28;20182;-63
2023/03/21 07:57:03;;;;;;;4.13;2.30;;;;;;;17.72;55.87;100444.69;5072239;28;20449;-63
2023/03/21 07:59:28;;;;;;;2.70;1.80;;;;;;;17.71;56.14;100443.84;5070113;28;20160;-63
2023/03/21 08:01:54;;;;;;;3.60;2.00;;;;;;;17.71;56.00;100443.84;5069736;28;20425;-63
2023/03/21 08:04:19;;;;;;;2.60;1.83;;;;;;;17.70;56.20;100442.19;5084078;28;20189;-63
2023/03/21 08:06:44;;;;;;;3.13;1.83;;;;;;;17.70;55.95;100447.91;5089877;28;20194;-63
2023/03/21 08:09:10;;;;;;;2.27;1.70;;;;;;;17.72;55.84;100453.25;5067574;28;20577;-63
2023/03/21 08:11:35;;;;;;;3.30;2.30;;;;;;;17.71;55.99;100449.53;5089745;28;20528;-63
2023/03/21 08:14:01;;;;;;;3.40;2.10;;;;;;;17.71;55.85;100446.69;5089865;28;20167;-63
2023/03/21 08:16:27;;;;;;;3.00;1.90;;;;;;;17.71;55.97;100446.69;5066714;28;20186;-63
2023/03/21 08:18:52;;;;;;;2.37;1.47;;;;;;;17.70;55.95;100447.91;5089010;28;20184;-63
2023/03/21 08:21:18;;;;;;;3.10;1.93;;;;;;;17.71;55.95;100443.03;5080322;28;20213;-63
2023/03/21 08:23:43;;;;;;;2.90;1.77;;;;;;;17.70;56.28;100447.91;5048789;28;20925;-63
2023/03/21 08:26:09;;;;;;;3.67;2.27;;;;;;;17.72;56.03;100448.38;5063104;28;20230;-63
2023/03/21 08:28:35;;;;;;;3.00;2.10;;;;;;;17.71;55.98;100451.59;5070760;28;20213;-63
2023/03/21 08:31:06;;;;;;;2.93;2.03;;;;;;;17.73;56.21;100441.44;5068822;28;20155;-63
2023/03/21 08:33:31;;;;;;;2.53;1.67;;;;;;;17.73;55.82;100441.44;5077345;28;20471;-63
2023/03/21 08:36:01;;;;;;;2.90;2.03;;;;;;;17.76;55.93;100451.31;5089610;28;20888;-63
2023/03/21 08:38:32;;;;;;;3.30;2.00;;;;;;;17.77;55.26;100438.69;5086574;28;20239;-63
2023/03/21 08:40:59;;;;;;;3.37;2.10;;;;;;;17.76;55.60;100446.41;5053417;28;20432;-63
2023/03/21 08:43:25;;;;;;;2.97;1.90;;;;;;;17.77;55.91;100442.38;5051541;28;20459;-63
2023/03/21 08:45:51;;;;;;;3.40;2.10;;;;;;;17.77;56.26;100441.53;5069168;28;20461;-63
2023/03/21 08:48:16;;;;;;;2.90;1.93;;;;;;;17.77;55.75;100445.22;5072556;28;20918;-63
2023/03/21 08:50:42;;;;;;;2.80;1.80;;;;;;;17.78;56.01;100446.03;5089462;28;20557;-63
2023/03/21 08:53:07;;;;;;;2.90;2.00;;;;;;;17.76;56.11;100443.53;5089553;28;20523;-62
2023/03/21 08:55:34;;;;;;;3.17;1.97;;;;;;;17.75;55.97;100439.03;5082657;28;20213;-63
2023/03/21 08:58:00;;;;;;;3.30;1.80;;;;;;;17.78;55.90;100443.19;5068004;28;20198;-63
2023/03/21 09:00:26;;;;;;;2.83;1.90;;;;;;;17.75;55.99;100444.75;5049579;28;20433;-63
2023/03/21 09:02:53;;;;;;;3.43;1.90;;;;;;;17.75;55.92;100439.03;5083905;28;20848;-63
2023/03/21 09:05:18;;;;;;;3.23;2.37;;;;;;;17.74;55.99;100443.09;5088691;28;20177;-63
2023/03/21 09:07:44;;;;;;;3.60;1.85;;;;;;;17.73;55.71;100441.44;5084603;28;20432;-63
2023/03/21 09:10:17;;;;;;;2.60;1.80;;;;;;;17.72;55.82;100434.09;5088665;28;20174;-63
2023/03/21 09:12:42;;;;;;;3.03;1.60;;;;;;;17.75;55.65;100439.03;5071024;28;20205;-63
2023/03/21 09:15:10;;;;;;;2.43;1.73;;;;;;;17.71;55.79;100438.13;5089299;28;20416;-63
2023/03/21 09:17:40;;;;;;;2.83;1.70;;;;;;;17.72;55.88;100438.97;5079873;28;20194;-63
2023/03/21 09:20:10;;;;;;;2.37;1.60;;;;;;;17.71;55.73;100440.97;5068896;28;20942;-63
2023/03/21 09:22:37;;;;;;;2.80;1.77;;;;;;;17.71;55.99;100446.69;5083402;28;20428;-63
2023/03/21 09:25:03;;;;;;;2.53;1.60;;;;;;;17.72;56.19;100444.69;5089270;28;20769;-63
2023/03/21 09:27:28;;;;;;;2.80;1.57;;;;;;;17.72;55.85;100444.69;5084256;28;20428;-63
2023/03/21 09:29:54;;;;;;;2.53;1.70;;;;;;;17.73;56.13;100447.16;5050986;28;20199;-63
2023/03/21 09:32:20;;;;;;;2.87;1.70;;;;;;;17.72;55.89;100451.22;5070604;28;20552;-63
2023/03/21 09:34:47;;;;;;;2.63;1.50;;;;;;;17.73;56.18;100455.72;5068760;28;20179;-63
2023/03/21 09:37:12;;;;;;;2.30;1.50;;;;;;;17.74;55.84;100447.97;5068924;28;20213;-63
2023/03/21 09:39:43;;;;;;;3.30;1.93;;;;;;;17.74;56.18;100437.41;5070630;28;20432;-63
2023/03/21 09:42:18;;;;;;;3.33;1.83;;;;;;;17.72;55.73;100436.94;5068695;28;20171;-63
2023/03/21 09:44:53;;;;;;;2.73;2.03;;;;;;;17.75;55.81;100444.75;5072105;28;20409;-63
2023/03/21 09:47:27;;;;;;;2.50;1.70;;;;;;;17.76;55.70;100442.75;5053868;28;20499;-63
2023/03/21 09:50:16;;;;;;;2.33;1.50;;;;;;;17.75;55.91;100444.75;5059174;28;21033;-63
2023/03/21 09:52:46;;;;;;;2.70;1.90;;;;;;;17.73;56.06;100447.16;5054558;28;20418;-62
2023/03/21 09:55:20;;;;;;;2.37;1.67;;;;;;;17.74;55.76;100442.25;5072188;28;20821;-62
2023/03/21 09:58:03;;;;;;;2.63;1.80;;;;;;;17.73;55.83;100447.16;5072127;28;20786;-63
2023/03/21 10:00:38;;;;;;;2.70;1.53;;;;;;;17.74;55.84;100442.25;5040105;28;20441;-63
2023/03/21 10:03:08;;;;;;;2.60;1.70;;;;;;;17.73;55.92;100449.19;5071046;28;20427;-63
2023/03/21 10:05:39;;;;;;;2.27;1.60;;;;;;;17.74;55.83;100445.97;5079809;28;20460;-63
2023/03/21 10:08:12;;;;;;;2.37;1.70;;;;;;;17.72;55.93;100439.81;5073893;28;20555;-63
2023/03/21 10:10:46;;;;;;;2.77;1.77;;;;;;;17.74;55.86;100434.53;5056154;28;20510;-63
2023/03/21 10:13:26;;;;;;;2.50;1.63;;;;;;;17.77;55.84;100430.94;5052894;28;20752;-63
2023/03/21 10:15:56;;;;;;;2.20;1.60;;;;;;;17.78;55.57;100420.34;5054359;28;20413;-63
2023/03/21 10:18:24;;;;;;;2.23;1.43;;;;;;;17.79;55.51;100417.13;5073764;28;20448;-63
2023/03/21 10:20:50;;;;;;;2.97;1.80;;;;;;;17.79;55.47;100416.28;5037247;28;20444;-64
2023/03/21 10:23:15;;;;;;;2.30;1.50;;;;;;;17.79;55.66;100411.41;5053481;28;20772;-63
2023/03/21 10:25:43;;;;;;;2.40;1.77;;;;;;;17.80;55.64;100413.06;5037921;28;20183;-63
2023/03/21 10:28:14;;;;;;;2.60;1.73;;;;;;;17.83;55.72;100402.91;5040091;28;20203;-63
2023/03/21 10:30:49;;;;;;;2.40;1.60;;;;;;;17.82;55.26;100402.09;5037526;28;20420;-63
2023/03/21 10:33:17;;;;;;;2.53;1.70;;;;;;;17.80;55.53;100398.78;5039076;28;20441;-63
2023/03/21 10:35:44;;;;;;;2.73;1.70;;;;;;;17.82;55.30;100407.81;5070869;28;20498;-63
2023/03/21 10:38:16;;;;;;;2.10;1.47;;;;;;;17.82;55.79;100392.69;5035880;28;20417;-63
2023/03/21 10:40:42;;;;;;;2.07;1.50;;;;;;;17.84;56.06;100402.53;5036757;28;20911;-63
2023/03/21 10:43:28;;;;;;;3.17;1.90;;;;;;;17.85;55.81;100391.97;5053871;28;20508;-63
2023/03/21 10:45:54;;;;;;;3.00;2.00;;;;;;;17.83;55.77;100386.63;5070354;28;20218;-63
2023/03/21 10:48:19;;;;;;;2.70;1.80;;;;;;;17.84;56.02;100382.56;5054298;28;21023;-63
2023/03/21 10:50:46;;;;;;;2.70;1.63;;;;;;;17.80;55.59;100384.50;5073210;28;20654;-63
2023/03/21 10:53:21;;;;;;;3.10;1.60;;;;;;;17.85;55.80;100386.25;5036729;28;20171;-63
2023/03/21 10:55:50;;;;;;;2.53;1.67;;;;;;;17.85;55.74;100384.19;5071759;28;20498;-63
2023/03/21 10:58:17;;;;;;;2.70;1.90;;;;;;;17.87;55.73;100381.81;5043576;28;20425;-63
2023/03/21 11:00:43;;;;;;;4.23;1.90;;;;;;;17.85;55.68;100381.34;5033031;28;20419;-63
2023/03/21 11:03:21;;;;;;;3.10;1.70;;;;;;;17.87;55.91;100376.09;5062751;28;20445;-63
2023/03/21 11:05:47;;;;;;;2.87;1.83;;;;;;;17.90;55.50;100377.38;5072989;28;20440;-63
2023/03/21 11:08:14;;;;;;;4.33;1.73;;;;;;;17.89;55.53;100376.53;5065356;28;20820;-63
2023/03/21 11:11:02;;;;;;;3.10;1.63;;;;;;;17.89;55.53;100367.13;5036264;28;20163;-63
2023/03/21 11:13:43;;;;;;;2.20;1.50;;;;;;;17.88;55.84;100371.19;5069373;28;20850;-63
2023/03/21 11:16:08;;;;;;;2.20;1.43;;;;;;;17.91;55.54;100361.88;5050632;28;20488;-63
2023/03/21 11:18:39;;;;;;;3.43;1.50;;;;;;;17.92;55.62;100370.09;5049973;28;20875;-63
2023/03/21 11:21:06;;;;;;;2.00;1.30;;;;;;;17.91;55.54;100357.00;5060624;28;20276;-63
2023/03/21 11:23:33;;;;;;;3.13;1.87;;;;;;;17.90;55.95;100352.47;5055722;28;20413;-63
2023/03/21 11:25:59;;;;;;;2.33;1.40;;;;;;;17.90;55.56;100352.47;5064650;28;20441;-63
2023/03/21 11:28:32;;;;;;;3.47;1.57;;;;;;;17.92;55.21;100354.97;5068837;28;20461;-63